This is the latest recevied weather packets stored in our database for station/object SP2FH-13. If no packets are shown the sender has not sent any weather packets the latest 10 day(s).
| Time | Temp. | Humidity | Pressure | Rain* | Wind** | Luminosity | Snow |
|---|---|---|---|---|---|---|---|
| 1777878811 | 20.56° C | 42% | 1001.2 hPa | - | - | 448 W/m² | - |
| 1777878509 | 20.56° C | 40% | 1001.3 hPa | - | - | 443 W/m² | - |
| 1777878208 | 20° C | 43% | 1001.3 hPa | - | - | 338 W/m² | - |
| 1777877907 | 20° C | 42% | 1001.3 hPa | - | - | 393 W/m² | - |
| 1777877606 | 20° C | 40% | 1001.3 hPa | - | - | 371 W/m² | - |
| 1777877305 | 19.44° C | 41% | 1001.3 hPa | - | - | 374 W/m² | - |
| 1777877003 | 20° C | 40% | 1001.3 hPa | - | - | 371 W/m² | - |
| 1777876702 | 19.44° C | 41% | 1001.3 hPa | - | - | 354 W/m² | - |
| 1777876401 | 18.89° C | 41% | 1001.3 hPa | - | - | 331 W/m² | - |
| 1777876099 | 18.33° C | 42% | 1001.3 hPa | - | - | 295 W/m² | - |
| 1777875798 | 18.33° C | 44% | 1001.2 hPa | - | - | 239 W/m² | - |
| 1777875497 | 17.78° C | 44% | 1001.2 hPa | - | - | 185 W/m² | - |
| 1777875196 | 18.33° C | 43% | 1001.2 hPa | - | - | 190 W/m² | - |
| 1777874895 | 18.33° C | 43% | 1001.2 hPa | - | - | 249 W/m² | - |
| 1777874594 | 18.33° C | 42% | 1001.2 hPa | - | - | 191 W/m² | - |
| 1777874293 | 18.33° C | 43% | 1001.2 hPa | - | - | 175 W/m² | - |
| 1777873992 | 18.33° C | 43% | 1001.2 hPa | - | - | 165 W/m² | - |
| 1777873691 | 17.78° C | 45% | 1001.2 hPa | - | - | 246 W/m² | - |
| 1777873390 | 17.22° C | 46% | 1001.1 hPa | - | - | 199 W/m² | - |
| 1777873089 | 16.67° C | 47% | 1001.1 hPa | - | - | 180 W/m² | - |
| 1777872788 | 16.67° C | 48% | 1001.1 hPa | - | - | 144 W/m² | - |
| 1777872487 | 16.67° C | 48% | 1001.2 hPa | - | - | 130 W/m² | - |
| 1777872186 | 16.67° C | 49% | 1001.2 hPa | - | - | 126 W/m² | - |
| 1777871884 | 16.67° C | 48% | 1001.2 hPa | - | - | 132 W/m² | - |
| 1777871583 | 16.11° C | 49% | 1001.2 hPa | - | - | 129 W/m² | - |
* Rain since midnight (hover to see other rain measurements)
** Current wind speed in m/s (hover to see current wind gust speed)